Time;durP1;ratioP1;P1;durP2;ratioP2;P2;SDS_P1;SDS_P2;PMS_P1;PMS_P2;Temp;Humidity;BMP_temperature;BMP_pressure;BME280_temperature;BME280_humidity;BME280_pressure;Samples;Min_cycle;Max_cycle;Signal;HPM_P1;HPM_P2
2022/04/10 00:00:15;;;;;;;5.67;4.50;;;5.90;87.20;;;;;;4965117;28;20263;-82
2022/04/10 00:02:41;;;;;;;4.50;3.67;;;5.80;87.30;;;;;;4967240;28;20187;-82
2022/04/10 00:05:08;;;;;;;6.60;4.93;;;5.80;88.00;;;;;;4966555;28;20191;-83
2022/04/10 00:07:34;;;;;;;4.23;3.83;;;5.80;87.60;;;;;;4968571;28;20180;-83
2022/04/10 00:09:59;;;;;;;4.17;3.67;;;5.80;87.20;;;;;;4974788;28;20197;-83
2022/04/10 00:12:26;;;;;;;4.23;3.47;;;5.90;86.70;;;;;;4972947;28;20191;-83
2022/04/10 00:14:51;;;;;;;5.00;3.90;;;5.70;86.80;;;;;;4971924;28;20245;-82
2022/04/10 00:17:17;;;;;;;4.63;3.47;;;5.80;86.90;;;;;;4963132;28;20196;-83
2022/04/10 00:19:45;;;;;;;4.93;4.13;;;5.60;87.80;;;;;;4965388;28;20198;-82
2022/04/10 00:22:11;;;;;;;5.33;3.83;;;5.80;87.40;;;;;;4967776;28;20191;-82
2022/04/10 00:24:36;;;;;;;5.30;3.80;;;5.70;87.10;;;;;;4970481;28;20211;-84
2022/04/10 00:27:02;;;;;;;5.23;3.53;;;5.70;87.90;;;;;;4969741;28;20202;-82
2022/04/10 00:29:30;;;;;;;5.47;3.43;;;5.70;87.90;;;;;;4963744;28;20191;-82
2022/04/10 00:31:56;;;;;;;5.13;3.73;;;5.70;87.90;;;;;;4963890;28;20270;-82
2022/04/10 00:34:21;;;;;;;5.33;3.67;;;5.70;88.50;;;;;;4961621;28;20622;-83
2022/04/10 00:36:47;;;;;;;4.87;3.90;;;5.70;88.50;;;;;;4971229;28;20202;-84
2022/04/10 00:39:12;;;;;;;4.07;3.63;;;5.70;87.80;;;;;;4986138;28;20198;-84
2022/04/10 00:41:38;;;;;;;4.60;3.47;;;5.60;88.20;;;;;;4978465;28;20231;-82
2022/04/10 00:44:09;;;;;;;3.90;3.43;;;5.60;89.10;;;;;;4965637;28;20221;-82
2022/04/10 00:46:35;;;;;;;5.93;3.87;;;5.70;88.70;;;;;;4957893;28;20267;-83
2022/04/10 00:49:02;;;;;;;5.90;3.63;;;5.70;88.60;;;;;;4965914;28;20619;-82
2022/04/10 00:54:17;;;;;;;5.97;3.67;;;5.80;87.60;;;;;;4965601;28;20254;-82
2022/04/10 00:56:44;;;;;;;4.20;3.80;;;5.80;87.80;;;;;;4963217;28;20242;-82
2022/04/10 00:59:12;;;;;;;4.93;4.10;;;5.80;88.00;;;;;;4962684;28;20245;-82
2022/04/10 01:01:39;;;;;;;5.60;3.80;;;5.80;87.50;;;;;;4966723;28;20203;-82
2022/04/10 01:04:05;;;;;;;5.43;4.20;;;5.70;88.20;;;;;;4968256;28;20212;-81
2022/04/10 01:06:35;;;;;;;4.67;3.87;;;5.70;88.20;;;;;;4978388;28;20270;-82
2022/04/10 01:09:03;;;;;;;4.80;3.53;;;5.60;89.00;;;;;;4975546;28;20203;-82
2022/04/10 01:11:29;;;;;;;6.03;4.23;;;5.50;90.20;;;;;;4964992;28;20206;-81
2022/04/10 01:13:55;;;;;;;5.63;4.07;;;5.50;90.20;;;;;;4965182;28;20258;-82
2022/04/10 01:16:24;;;;;;;5.60;4.30;;;5.40;90.40;;;;;;4961095;28;20222;-82
2022/04/10 01:18:51;;;;;;;4.57;4.13;;;5.30;91.50;;;;;;4964193;28;20194;-82
2022/04/10 01:21:27;;;;;;;6.17;4.53;;;5.30;92.40;;;;;;4964578;28;20211;-82
2022/04/10 01:23:55;;;;;;;4.37;3.93;;;5.30;92.10;;;;;;4961338;28;20226;-83
2022/04/10 01:26:22;;;;;;;4.30;3.77;;;5.40;90.90;;;;;;4968829;28;20183;-83
2022/04/10 01:29:14;;;;;;;3.90;3.60;;;5.30;91.20;;;;;;4965330;28;20195;-83
2022/04/10 01:31:43;;;;;;;4.20;3.80;;;5.10;92.50;;;;;;4966774;28;20203;-82
2022/04/10 01:34:13;;;;;;;4.47;3.67;;;5.10;93.20;;;;;;4967226;28;20211;-83
2022/04/10 01:36:39;;;;;;;6.07;3.50;;;5.10;93.00;;;;;;4965175;28;20591;-83
2022/04/10 01:39:07;;;;;;;6.40;4.03;;;5.10;94.10;;;;;;4968175;28;20537;-83
2022/04/10 01:41:34;;;;;;;7.13;3.83;;;4.90;95.10;;;;;;4966046;28;20211;-83
2022/04/10 01:44:01;;;;;;;5.17;4.10;;;4.80;96.40;;;;;;4969044;28;20206;-83
2022/04/10 01:46:28;;;;;;;5.53;3.90;;;4.80;97.00;;;;;;4964177;28;20191;-82
2022/04/10 01:48:54;;;;;;;7.13;4.40;;;4.70;97.00;;;;;;4961651;28;20191;-82
2022/04/10 01:51:20;;;;;;;4.53;3.60;;;4.80;97.60;;;;;;4964307;28;20655;-82
2022/04/10 01:53:46;;;;;;;6.40;3.70;;;4.80;98.00;;;;;;4963797;28;20221;-82
2022/04/10 01:56:12;;;;;;;5.17;3.73;;;4.80;98.20;;;;;;4970347;28;20203;-82
2022/04/10 01:58:40;;;;;;;5.73;3.80;;;4.80;98.10;;;;;;4965673;28;20390;-83
2022/04/10 02:01:08;;;;;;;4.77;3.87;;;4.70;98.70;;;;;;4960082;28;20212;-83
2022/04/10 02:03:34;;;;;;;5.50;3.97;;;4.60;99.00;;;;;;4978506;28;20309;-82
2022/04/10 02:06:00;;;;;;;5.60;3.60;;;4.60;99.70;;;;;;4977635;28;20246;-83
2022/04/10 02:08:30;;;;;;;3.83;3.43;;;4.70;99.70;;;;;;4966298;28;20188;-83
2022/04/10 02:10:56;;;;;;;4.07;3.57;;;4.60;99.20;;;;;;4973057;28;20604;-83
2022/04/10 02:13:22;;;;;;;4.40;4.00;;;4.70;99.10;;;;;;4968065;28;20764;-83
2022/04/10 02:15:48;;;;;;;6.33;3.33;;;4.70;99.20;;;;;;4972116;28;20565;-83
2022/04/10 02:18:14;;;;;;;4.83;3.50;;;4.70;98.90;;;;;;4970536;28;20187;-83
2022/04/10 02:20:40;;;;;;;3.97;3.47;;;4.60;98.70;;;;;;4969798;28;20238;-83
2022/04/10 02:23:06;;;;;;;9.07;3.97;;;4.60;98.40;;;;;;4967309;28;20385;-82
2022/04/10 02:25:31;;;;;;;5.17;3.90;;;4.60;99.20;;;;;;4967606;28;20194;-81
2022/04/10 02:27:57;;;;;;;4.47;3.80;;;4.50;99.20;;;;;;4967389;28;20192;-81
2022/04/10 02:30:23;;;;;;;5.53;3.63;;;4.50;99.70;;;;;;4966382;28;20556;-82
2022/04/10 02:32:48;;;;;;;5.67;3.63;;;4.50;99.20;;;;;;4966799;28;20215;-82
2022/04/10 02:35:14;;;;;;;5.93;3.90;;;4.50;99.20;;;;;;4967206;28;20213;-82
2022/04/10 02:37:40;;;;;;;5.10;3.50;;;4.60;98.30;;;;;;4965461;28;20203;-82
2022/04/10 02:40:07;;;;;;;5.27;4.00;;;4.50;98.00;;;;;;4965678;28;20211;-81
2022/04/10 02:42:36;;;;;;;5.17;4.57;;;4.50;98.60;;;;;;4964320;28;20241;-81
2022/04/10 02:45:03;;;;;;;4.40;3.63;;;4.50;98.90;;;;;;4972749;28;20189;-82
2022/04/10 02:47:32;;;;;;;4.00;3.60;;;4.60;98.30;;;;;;4970902;28;20674;-81
2022/04/10 02:49:58;;;;;;;6.20;3.70;;;4.50;98.30;;;;;;4968374;28;20191;-81
2022/04/10 02:52:23;;;;;;;4.77;3.70;;;4.50;98.00;;;;;;4971935;28;20684;-82
2022/04/10 02:54:49;;;;;;;5.80;3.73;;;4.50;98.60;;;;;;4973725;28;20217;-81
2022/04/10 02:57:15;;;;;;;4.20;3.80;;;4.50;98.70;;;;;;4968498;28;20188;-81
2022/04/10 02:59:41;;;;;;;4.87;3.80;;;4.40;99.10;;;;;;4972632;28;20245;-82
2022/04/10 03:02:06;;;;;;;5.10;3.80;;;4.30;99.60;;;;;;4970710;28;20245;-82
2022/04/10 03:04:32;;;;;;;4.17;3.30;;;4.30;99.70;;;;;;4965674;28;20257;-82
2022/04/10 03:06:58;;;;;;;4.17;3.57;;;4.30;99.70;;;;;;4962864;28;20667;-81
2022/04/10 03:09:23;;;;;;;4.00;3.43;;;4.30;99.70;;;;;;4966828;28;20209;-81
2022/04/10 03:11:49;;;;;;;4.90;3.50;;;4.20;99.90;;;;;;4966924;28;20206;-82
2022/04/10 03:14:15;;;;;;;3.60;3.27;;;4.20;99.90;;;;;;4963477;28;20251;-81
2022/04/10 03:16:42;;;;;;;4.67;3.97;;;4.20;99.90;;;;;;4966468;28;20206;-82
2022/04/10 03:19:08;;;;;;;4.03;3.40;;;4.20;99.90;;;;;;4967259;28;20195;-81
2022/04/10 03:21:34;;;;;;;4.10;3.70;;;4.20;99.90;;;;;;4962416;28;20209;-81
2022/04/10 03:24:01;;;;;;;3.70;3.30;;;4.30;99.90;;;;;;4964352;28;20279;-82
2022/04/10 03:26:27;;;;;;;6.07;3.67;;;4.30;99.90;;;;;;4971844;28;20687;-81
2022/04/10 03:28:53;;;;;;;5.30;3.83;;;4.30;99.90;;;;;;4979759;28;20184;-82
2022/04/10 03:31:20;;;;;;;4.83;3.40;;;4.40;99.40;;;;;;4984241;28;20428;-83
2022/04/10 03:33:49;;;;;;;3.90;3.57;;;4.30;99.90;;;;;;4966175;28;20257;-81
2022/04/10 03:36:15;;;;;;;6.40;4.03;;;4.20;99.90;;;;;;4965568;28;20192;-82
2022/04/10 03:38:41;;;;;;;5.40;4.10;;;4.30;99.90;;;;;;4962695;28;20237;-81
2022/04/10 03:41:06;;;;;;;5.53;3.43;;;4.40;99.90;;;;;;4962926;28;20247;-82
2022/04/10 03:43:32;;;;;;;6.10;4.03;;;4.40;99.90;;;;;;4964388;28;20266;-82
2022/04/10 03:45:58;;;;;;;5.37;4.23;;;4.30;99.90;;;;;;4965147;28;20650;-81
2022/04/10 03:48:24;;;;;;;4.30;3.90;;;4.30;99.90;;;;;;4962552;28;20183;-81
2022/04/10 03:50:50;;;;;;;5.63;3.70;;;4.20;99.90;;;;;;4963214;28;20183;-82
2022/04/10 03:53:15;;;;;;;5.07;4.27;;;4.30;99.90;;;;;;4966453;28;20221;-81
2022/04/10 03:55:42;;;;;;;4.97;3.70;;;4.30;99.90;;;;;;4964900;28;20200;-81
2022/04/10 03:58:08;;;;;;;5.93;4.50;;;4.20;99.90;;;;;;4970619;28;20889;-81
2022/04/10 04:00:33;;;;;;;5.97;4.17;;;4.30;99.90;;;;;;4962541;28;20243;-81
2022/04/10 04:02:59;;;;;;;5.03;3.97;;;4.20;99.90;;;;;;4965827;28;20226;-81
2022/04/10 04:05:25;;;;;;;4.93;3.97;;;4.20;99.90;;;;;;4967328;28;20196;-81
2022/04/10 04:07:50;;;;;;;4.87;4.30;;;4.20;99.90;;;;;;4962683;28;20279;-82
2022/04/10 04:10:16;;;;;;;4.63;4.23;;;4.20;99.90;;;;;;4963729;28;20187;-82
2022/04/10 04:12:42;;;;;;;4.87;3.77;;;4.20;99.90;;;;;;4966133;28;20261;-82
2022/04/10 04:15:08;;;;;;;6.00;4.00;;;4.30;99.90;;;;;;4958965;28;20283;-82
2022/04/10 04:17:33;;;;;;;4.17;3.67;;;4.30;99.90;;;;;;4965430;28;20654;-82
2022/04/10 04:19:59;;;;;;;4.27;3.80;;;4.20;99.90;;;;;;4969868;28;20183;-82
2022/04/10 04:22:25;;;;;;;4.70;4.27;;;4.30;99.90;;;;;;4974536;28;20183;-81
2022/04/10 04:24:50;;;;;;;6.53;4.80;;;4.30;99.90;;;;;;4974800;28;20599;-81
2022/04/10 04:27:16;;;;;;;4.83;4.40;;;4.30;99.90;;;;;;4966021;28;20195;-82
2022/04/10 04:29:41;;;;;;;7.90;4.47;;;4.20;99.90;;;;;;4963180;28;20238;-82
2022/04/10 04:32:07;;;;;;;5.80;4.47;;;4.20;99.90;;;;;;4964188;28;20195;-81
2022/04/10 04:34:33;;;;;;;5.77;4.53;;;4.30;99.90;;;;;;4961397;28;20247;-81
2022/04/10 04:36:59;;;;;;;5.23;4.07;;;4.30;99.90;;;;;;4966889;28;20219;-81
2022/04/10 04:39:25;;;;;;;5.90;4.47;;;4.30;99.90;;;;;;4964513;28;20282;-81
2022/04/10 04:41:50;;;;;;;7.00;4.50;;;4.40;99.90;;;;;;4962957;28;20207;-82
2022/04/10 04:44:16;;;;;;;6.30;4.37;;;4.30;99.90;;;;;;4963547;28;20809;-82
2022/04/10 04:46:42;;;;;;;6.03;5.33;;;4.40;99.90;;;;;;4964195;28;20191;-82
2022/04/10 04:49:08;;;;;;;7.03;4.90;;;4.50;99.90;;;;;;4965542;28;20182;-82
2022/04/10 04:51:36;;;;;;;8.20;5.20;;;4.40;99.90;;;;;;4974090;28;20187;-81
2022/04/10 04:54:03;;;;;;;5.73;4.67;;;4.30;99.90;;;;;;4970626;28;20242;-83
2022/04/10 04:56:29;;;;;;;5.27;4.77;;;4.50;99.90;;;;;;4970564;28;20191;-83
2022/04/10 04:58:55;;;;;;;6.27;5.20;;;4.50;99.90;;;;;;4971558;28;20344;-82
2022/04/10 05:01:21;;;;;;;6.33;4.67;;;4.60;99.90;;;;;;4973212;28;20214;-83
2022/04/10 05:03:46;;;;;;;6.13;4.40;;;4.60;99.70;;;;;;4969762;28;20219;-83
2022/04/10 05:06:12;;;;;;;6.80;5.23;;;4.60;99.70;;;;;;4968125;28;20183;-83
2022/04/10 05:08:39;;;;;;;6.93;5.30;;;4.40;99.90;;;;;;4965568;28;20183;-84
2022/04/10 05:11:07;;;;;;;5.93;4.73;;;4.40;99.90;;;;;;4965501;28;20187;-83
2022/04/10 05:13:33;;;;;;;5.67;5.17;;;4.40;99.90;;;;;;4965406;28;20219;-83
2022/04/10 05:15:59;;;;;;;9.77;5.00;;;4.20;99.90;;;;;;4966033;28;20206;-82
2022/04/10 05:18:24;;;;;;;4.87;4.40;;;4.20;99.90;;;;;;4968301;28;20194;-83
2022/04/10 05:20:50;;;;;;;5.87;5.13;;;4.20;99.90;;;;;;4966596;28;20239;-83
2022/04/10 05:23:17;;;;;;;5.57;5.07;;;4.30;99.90;;;;;;4969129;28;20261;-82
2022/04/10 05:25:43;;;;;;;6.70;5.13;;;4.40;99.90;;;;;;4959893;28;20199;-83
2022/04/10 05:28:09;;;;;;;5.97;5.37;;;4.60;99.90;;;;;;4967120;28;20211;-82
2022/04/10 05:30:35;;;;;;;7.50;5.30;;;4.50;99.90;;;;;;4969037;28;20562;-84
2022/04/10 05:33:00;;;;;;;5.70;4.77;;;4.60;99.10;;;;;;4967560;28;20222;-83
2022/04/10 05:35:26;;;;;;;6.83;5.47;;;4.60;99.90;;;;;;4974728;28;20190;-83
2022/04/10 05:37:52;;;;;;;9.00;6.07;;;4.60;99.90;;;;;;4974798;28;20188;-83
2022/04/10 05:40:18;;;;;;;6.47;5.47;;;4.60;99.90;;;;;;4974095;28;20218;-82
2022/04/10 05:42:44;;;;;;;6.47;5.87;;;4.70;99.90;;;;;;4972848;28;20211;-83
2022/04/10 05:45:11;;;;;;;6.57;5.73;;;4.70;99.50;;;;;;4978252;28;20207;-83
2022/04/10 05:47:38;;;;;;;8.07;5.27;;;4.80;99.80;;;;;;4981596;28;20190;-83
2022/04/10 05:50:04;;;;;;;7.30;5.47;;;4.80;99.60;;;;;;4978328;28;20287;-83
2022/04/10 05:52:29;;;;;;;6.10;5.50;;;4.70;99.80;;;;;;4978763;28;20220;-83
2022/04/10 05:54:59;;;;;;;6.70;4.93;;;4.60;99.90;;;;;;4974314;28;20191;-83
2022/04/10 05:57:25;;;;;;;5.60;4.50;;;4.70;99.90;;;;;;4975811;28;20797;-83
2022/04/10 05:59:51;;;;;;;5.53;5.03;;;4.70;99.60;;;;;;4965891;28;20266;-83
2022/04/10 06:02:16;;;;;;;5.37;4.70;;;4.70;99.90;;;;;;4978343;28;20219;-84
2022/04/10 06:04:42;;;;;;;5.03;4.53;;;4.80;99.00;;;;;;4969154;28;20206;-83
2022/04/10 06:07:08;;;;;;;5.57;4.97;;;4.90;99.90;;;;;;4964280;28;20313;-84
2022/04/10 06:09:33;;;;;;;6.40;5.10;;;4.90;99.80;;;;;;4969835;28;20211;-83
2022/04/10 06:11:59;;;;;;;7.30;4.90;;;4.80;99.10;;;;;;4971165;28;20249;-83
2022/04/10 06:14:25;;;;;;;6.00;4.27;;;4.80;99.00;;;;;;4966573;28;20231;-82
2022/04/10 06:16:50;;;;;;;5.53;5.00;;;5.00;98.80;;;;;;4967016;28;20195;-82
2022/04/10 06:19:18;;;;;;;7.23;5.20;;;4.80;99.80;;;;;;4979134;28;20260;-82
2022/04/10 06:21:44;;;;;;;6.80;5.13;;;4.80;99.70;;;;;;4981410;28;20223;-81
2022/04/10 06:24:10;;;;;;;6.13;5.17;;;4.90;98.70;;;;;;4988282;28;20207;-82
2022/04/10 06:26:35;;;;;;;7.37;5.10;;;4.90;98.40;;;;;;4972274;28;20238;-82
2022/04/10 06:29:01;;;;;;;6.37;5.07;;;5.00;98.40;;;;;;4967878;28;20190;-82
2022/04/10 06:31:27;;;;;;;5.10;4.60;;;4.90;98.30;;;;;;4967746;28;20685;-82
2022/04/10 06:33:54;;;;;;;7.00;4.83;;;5.10;97.60;;;;;;4972460;28;20211;-81
2022/04/10 06:36:20;;;;;;;5.90;4.57;;;5.10;97.50;;;;;;4969705;28;20192;-81
2022/04/10 06:38:46;;;;;;;7.63;5.80;;;5.20;96.70;;;;;;4971222;28;20202;-82
2022/04/10 06:41:11;;;;;;;6.80;4.83;;;5.20;96.40;;;;;;4971006;28;20214;-83
2022/04/10 06:43:37;;;;;;;5.93;5.10;;;5.10;97.20;;;;;;4976389;28;20206;-81
2022/04/10 06:46:04;;;;;;;6.17;5.13;;;5.20;96.90;;;;;;4991189;28;20191;-82
2022/04/10 06:48:30;;;;;;;5.30;4.80;;;5.30;96.60;;;;;;4982648;28;20189;-82
2022/04/10 06:50:56;;;;;;;5.93;4.57;;;5.40;94.40;;;;;;4987117;28;20223;-83
2022/04/10 06:53:24;;;;;;;5.83;5.23;;;5.40;95.20;;;;;;4990180;28;20222;-83
2022/04/10 06:55:50;;;;;;;5.47;4.97;;;5.30;93.40;;;;;;4987365;28;20187;-83
2022/04/10 06:58:19;;;;;;;5.53;4.97;;;5.30;94.20;;;;;;4993228;28;20194;-82
2022/04/10 07:00:45;;;;;;;6.67;5.30;;;5.50;93.00;;;;;;4984931;28;20254;-83
2022/04/10 07:03:10;;;;;;;5.40;4.80;;;5.50;93.60;;;;;;4960044;28;20222;-82
2022/04/10 07:05:37;;;;;;;5.87;5.00;;;5.60;93.10;;;;;;4970824;28;20191;-82
2022/04/10 07:08:03;;;;;;;7.53;4.87;;;5.70;93.90;;;;;;4979263;28;20218;-82
2022/04/10 07:10:29;;;;;;;6.10;5.40;;;5.70;92.00;;;;;;4968521;28;20194;-81
2022/04/10 07:12:55;;;;;;;7.43;5.00;;;5.60;92.60;;;;;;4964221;28;20227;-81
2022/04/10 07:15:20;;;;;;;6.03;4.80;;;5.50;92.50;;;;;;4964621;28;20286;-81
2022/04/10 07:17:46;;;;;;;5.83;5.10;;;5.50;92.90;;;;;;4967987;28;20191;-83
2022/04/10 07:20:11;;;;;;;5.57;4.87;;;5.70;92.20;;;;;;4972064;28;20187;-81
2022/04/10 07:25:23;;;;;;;6.40;4.77;;;6.00;88.90;;;;;;4966716;28;20254;-81
2022/04/10 07:27:48;;;;;;;7.47;5.60;;;6.10;89.30;;;;;;4967355;28;20206;-81
2022/04/10 07:30:14;;;;;;;4.77;4.33;;;5.90;89.70;;;;;;4965972;28;20180;-81
2022/04/10 07:32:40;;;;;;;8.00;4.77;;;5.90;89.40;;;;;;4969581;28;20183;-81
2022/04/10 07:35:06;;;;;;;5.53;5.00;;;5.90;89.30;;;;;;4969883;28;20195;-81
2022/04/10 07:37:35;;;;;;;6.67;5.67;;;6.00;90.60;;;;;;4967682;28;20834;-81
2022/04/10 07:40:02;;;;;;;7.93;5.90;;;6.00;92.90;;;;;;4972244;28;20194;-81
2022/04/10 07:42:29;;;;;;;6.77;4.57;;;6.40;90.70;;;;;;4975105;28;20294;-82
2022/04/10 07:44:59;;;;;;;5.77;4.83;;;6.40;89.40;;;;;;4965887;28;20297;-82
2022/04/10 07:47:27;;;;;;;8.00;4.47;;;6.60;86.50;;;;;;4968948;28;20229;-80
2022/04/10 07:49:56;;;;;;;5.73;4.73;;;6.70;85.40;;;;;;4978781;28;20186;-81
2022/04/10 07:52:23;;;;;;;7.43;4.53;;;6.80;84.40;;;;;;4990239;28;20186;-81
2022/04/10 07:54:49;;;;;;;5.60;5.10;;;6.80;84.50;;;;;;4994571;28;20214;-81
2022/04/10 07:57:16;;;;;;;5.40;4.90;;;6.80;84.40;;;;;;4987815;28;20254;-80
2022/04/10 07:59:42;;;;;;;5.60;4.93;;;6.80;86.20;;;;;;4971342;28;20223;-81
2022/04/10 08:02:08;;;;;;;5.60;5.10;;;6.80;86.80;;;;;;4969150;28;20212;-83
2022/04/10 08:04:34;;;;;;;5.90;4.70;;;6.80;87.60;;;;;;4981002;28;20283;-84
2022/04/10 08:07:00;;;;;;;4.70;4.30;;;7.20;82.00;;;;;;4971217;28;20184;-83
2022/04/10 08:09:26;;;;;;;7.10;4.97;;;7.20;83.30;;;;;;4974946;28;20187;-83
2022/04/10 08:11:53;;;;;;;7.73;5.60;;;7.20;82.00;;;;;;4979302;28;20250;-83
2022/04/10 08:14:19;;;;;;;5.90;4.87;;;7.10;82.60;;;;;;4973077;28;20793;-82
2022/04/10 08:16:45;;;;;;;9.23;5.27;;;6.90;83.20;;;;;;4972759;28;20207;-82
2022/04/10 08:19:11;;;;;;;5.13;4.63;;;6.80;85.60;;;;;;4976069;28;20566;-82
2022/04/10 08:21:37;;;;;;;5.00;4.50;;;6.70;85.90;;;;;;4974207;28;20212;-82
2022/04/10 08:24:03;;;;;;;5.13;4.63;;;6.90;86.00;;;;;;4978623;28;20210;-82
2022/04/10 08:26:29;;;;;;;5.63;4.87;;;6.90;84.60;;;;;;4978058;28;20183;-82
2022/04/10 08:28:55;;;;;;;6.17;4.40;;;7.10;83.60;;;;;;4978583;28;20214;-80
2022/04/10 08:31:20;;;;;;;5.93;4.80;;;7.10;82.40;;;;;;4969700;28;20191;-82
2022/04/10 08:33:46;;;;;;;7.47;4.57;;;7.30;83.80;;;;;;4967762;28;20578;-82
2022/04/10 08:36:12;;;;;;;5.50;4.90;;;7.60;80.90;;;;;;4975234;28;20366;-82
2022/04/10 08:38:38;;;;;;;6.50;4.80;;;7.40;82.10;;;;;;4973303;28;20219;-81
2022/04/10 08:41:07;;;;;;;5.60;4.93;;;7.40;81.10;;;;;;4966850;28;20626;-81
2022/04/10 08:43:34;;;;;;;6.00;4.83;;;7.30;81.70;;;;;;4965764;28;20264;-81
2022/04/10 08:46:01;;;;;;;5.73;4.93;;;7.40;79.70;;;;;;4967688;28;20218;-81
2022/04/10 08:48:27;;;;;;;5.30;4.80;;;7.30;81.80;;;;;;4969449;28;20190;-81
2022/04/10 08:50:55;;;;;;;7.07;5.17;;;7.40;82.80;;;;;;4965636;28;20203;-82
2022/04/10 08:53:23;;;;;;;6.93;4.70;;;7.50;81.10;;;;;;4970358;28;20698;-82
2022/04/10 08:55:48;;;;;;;6.73;4.53;;;7.60;79.20;;;;;;4964157;28;20203;-81
2022/04/10 08:58:15;;;;;;;6.53;5.23;;;7.50;81.70;;;;;;4974707;28;20199;-82
2022/04/10 09:00:44;;;;;;;5.30;4.60;;;7.70;80.80;;;;;;4969348;28;20281;-82
2022/04/10 09:03:10;;;;;;;7.43;4.73;;;7.80;79.00;;;;;;4969706;28;20204;-82
2022/04/10 09:05:37;;;;;;;5.93;5.03;;;8.10;77.90;;;;;;4970241;28;20179;-82
2022/04/10 09:08:09;;;;;;;6.97;4.70;;;8.20;77.70;;;;;;4970735;28;20268;-81
2022/04/10 09:10:55;;;;;;;6.80;4.93;;;8.50;75.40;;;;;;4993194;28;20215;-82
2022/04/10 09:13:28;;;;;;;32.03;23.77;;;8.50;77.00;;;;;;4986693;28;20226;-82
2022/04/10 09:16:15;;;;;;;5.97;4.43;;;8.60;75.10;;;;;;4964076;28;20848;-82
2022/04/10 09:19:08;;;;;;;6.50;4.97;;;8.50;76.70;;;;;;4967058;28;20290;-82
2022/04/10 09:21:43;;;;;;;5.10;4.53;;;8.20;76.90;;;;;;4967134;28;20238;-82
2022/04/10 09:24:10;;;;;;;7.20;4.83;;;8.00;74.20;;;;;;4969559;28;20223;-82
2022/04/10 09:26:45;;;;;;;7.00;4.73;;;7.70;74.60;;;;;;4972026;28;20191;-83
2022/04/10 09:29:12;;;;;;;7.23;5.03;;;7.70;75.50;;;;;;4966184;28;20194;-82
2022/04/10 09:31:38;;;;;;;5.40;4.90;;;7.90;77.00;;;;;;4971869;28;20289;-82
2022/04/10 09:34:06;;;;;;;5.50;5.00;;;8.30;74.10;;;;;;4981358;28;20210;-82
2022/04/10 09:36:43;;;;;;;5.80;5.20;;;8.60;72.40;;;;;;4969684;28;20215;-82
2022/04/10 09:39:10;;;;;;;5.90;5.30;;;8.40;73.20;;;;;;4967270;28;20183;-82
2022/04/10 09:41:37;;;;;;;6.53;5.03;;;8.60;71.30;;;;;;4967340;28;20195;-82
2022/04/10 09:44:32;;;;;;;6.80;5.07;;;8.70;73.40;;;;;;4972934;28;20299;-82
2022/04/10 09:47:01;;;;;;;5.50;4.77;;;8.50;72.90;;;;;;4970267;28;20654;-81
2022/04/10 09:49:41;;;;;;;5.33;4.83;;;8.70;72.20;;;;;;4971374;28;20191;-81
2022/04/10 09:52:08;;;;;;;5.73;5.10;;;8.80;71.60;;;;;;4967693;28;20272;-81
2022/04/10 09:54:46;;;;;;;5.50;4.70;;;9.10;71.00;;;;;;4967227;28;20265;-82
2022/04/10 09:57:16;;;;;;;5.77;4.70;;;9.00;68.00;;;;;;4967144;28;20966;-81
2022/04/10 09:59:49;;;;;;;7.00;5.00;;;9.10;68.10;;;;;;4964104;28;20187;-82
2022/04/10 10:02:20;;;;;;;4.67;4.23;;;9.00;69.90;;;;;;4964052;28;20241;-81
2022/04/10 10:04:47;;;;;;;5.60;5.10;;;8.80;71.00;;;;;;4960908;28;20206;-81
2022/04/10 10:07:15;;;;;;;7.03;4.77;;;8.70;70.40;;;;;;4963686;28;20246;-82
2022/04/10 10:09:41;;;;;;;6.10;5.03;;;8.60;70.80;;;;;;4964285;28;20197;-81
2022/04/10 10:12:08;;;;;;;7.70;4.90;;;8.40;72.60;;;;;;4967488;28;20194;-82
2022/04/10 10:14:35;;;;;;;5.93;4.80;;;8.60;71.20;;;;;;4963203;28;20231;-82
2022/04/10 10:17:03;;;;;;;5.23;4.70;;;8.40;72.50;;;;;;4963115;28;20694;-83
2022/04/10 10:19:34;;;;;;;5.53;4.83;;;8.70;69.70;;;;;;4966744;28;20291;-83
2022/04/10 10:22:00;;;;;;;6.83;5.60;;;8.70;69.90;;;;;;4962006;28;20243;-84
2022/04/10 10:24:30;;;;;;;5.73;4.57;;;8.70;69.90;;;;;;4962132;28;20317;-81
2022/04/10 10:27:02;;;;;;;5.97;5.37;;;8.60;71.60;;;;;;4962414;28;20198;-81
2022/04/10 10:29:53;;;;;;;6.60;4.97;;;8.50;71.40;;;;;;4971510;28;20678;-81
2022/04/10 10:32:30;;;;;;;5.20;4.67;;;8.40;72.30;;;;;;4976015;28;20203;-81
2022/04/10 10:34:56;;;;;;;6.23;5.33;;;8.70;70.10;;;;;;4974240;28;20210;-81
2022/04/10 10:37:31;;;;;;;6.97;5.13;;;8.70;71.30;;;;;;4974522;28;20246;-83
2022/04/10 10:39:58;;;;;;;5.23;4.60;;;8.70;71.80;;;;;;4966843;28;20202;-82
2022/04/10 10:42:24;;;;;;;5.80;5.00;;;8.60;71.30;;;;;;4972335;28;20222;-82
2022/04/10 10:44:51;;;;;;;5.10;4.60;;;8.60;72.60;;;;;;4970222;28;20208;-82
2022/04/10 10:47:17;;;;;;;5.97;5.10;;;8.70;72.80;;;;;;4973449;28;20479;-82
2022/04/10 10:49:45;;;;;;;7.67;5.07;;;8.90;70.00;;;;;;4975073;28;20187;-82
2022/04/10 10:52:13;;;;;;;6.40;5.10;;;8.80;70.30;;;;;;4972295;28;20188;-83
2022/04/10 10:54:56;;;;;;;5.47;4.97;;;9.00;69.40;;;;;;4971018;28;20300;-83
2022/04/10 10:57:23;;;;;;;5.73;4.97;;;9.20;67.90;;;;;;4976894;28;20191;-82
2022/04/10 11:00:09;;;;;;;6.47;5.20;;;9.50;68.80;;;;;;4973086;28;20230;-83
2022/04/10 11:02:36;;;;;;;6.07;5.50;;;9.50;64.70;;;;;;4970499;28;20206;-83
2022/04/10 11:05:30;;;;;;;5.77;5.17;;;9.50;64.60;;;;;;4966979;28;20193;-83
2022/04/10 11:08:10;;;;;;;4.60;4.20;;;9.60;65.50;;;;;;4968296;28;20706;-83
2022/04/10 11:11:05;;;;;;;6.57;5.37;;;9.20;63.10;;;;;;4968243;28;20184;-82
2022/04/10 11:13:38;;;;;;;7.37;5.07;;;9.20;63.20;;;;;;4971469;28;20285;-82
2022/04/10 11:16:12;;;;;;;5.60;4.73;;;9.30;65.70;;;;;;4984983;28;20197;-82
2022/04/10 11:18:42;;;;;;;7.40;5.27;;;9.40;61.90;;;;;;4983886;28;20265;-82
2022/04/10 11:21:14;;;;;;;7.00;4.70;;;9.50;60.60;;;;;;4983824;28;20209;-82
2022/04/10 11:23:47;;;;;;;5.67;4.47;;;9.80;60.90;;;;;;4985170;28;20568;-82
2022/04/10 11:26:20;;;;;;;6.43;4.63;;;10.10;57.80;;;;;;4985268;28;20183;-82
2022/04/10 11:29:06;;;;;;;5.00;4.50;;;10.20;57.90;;;;;;4985633;28;20198;-82
2022/04/10 11:31:42;;;;;;;5.73;5.00;;;10.10;58.10;;;;;;4988908;28;20273;-81
2022/04/10 11:34:19;;;;;;;5.60;4.30;;;9.80;60.00;;;;;;4989298;28;20198;-82
2022/04/10 11:36:56;;;;;;;5.43;4.60;;;9.70;59.60;;;;;;4988974;28;20212;-82
2022/04/10 11:39:32;;;;;;;7.33;6.13;;;9.60;61.00;;;;;;4989352;28;20210;-82
2022/04/10 11:42:03;;;;;;;5.30;4.80;;;9.60;62.70;;;;;;4989766;28;20236;-83
2022/04/10 11:44:29;;;;;;;4.67;4.23;;;9.60;63.90;;;;;;4989416;28;20269;-83
2022/04/10 11:46:55;;;;;;;4.60;4.20;;;9.20;72.90;;;;;;4987903;28;20541;-82
2022/04/10 11:49:21;;;;;;;8.27;7.47;;;9.00;74.80;;;;;;4990426;28;20375;-82
2022/04/10 11:51:58;;;;;;;7.93;5.10;;;8.90;74.90;;;;;;4988688;28;20975;-82
2022/04/10 11:54:36;;;;;;;5.13;4.60;;;8.70;78.20;;;;;;4991042;28;20209;-82
2022/04/10 11:57:06;;;;;;;6.90;5.07;;;8.60;81.90;;;;;;4996727;28;20189;-81
2022/04/10 11:59:40;;;;;;;6.07;4.87;;;8.40;80.50;;;;;;5005517;28;20184;-82
2022/04/10 12:02:08;;;;;;;6.17;4.97;;;8.40;80.60;;;;;;4999033;28;20231;-83
2022/04/10 12:04:36;;;;;;;5.20;4.80;;;8.40;83.30;;;;;;4989910;28;20244;-83
2022/04/10 12:07:19;;;;;;;8.27;7.00;;;8.50;86.00;;;;;;4991422;28;20196;-84
2022/04/10 12:09:47;;;;;;;7.03;4.27;;;8.50;83.90;;;;;;4985936;28;20191;-83
2022/04/10 12:12:14;;;;;;;6.13;5.53;;;8.70;81.20;;;;;;4990764;28;20198;-84
2022/04/10 12:14:40;;;;;;;4.63;4.23;;;8.80;78.80;;;;;;4989963;28;20230;-83
2022/04/10 12:17:17;;;;;;;5.40;3.60;;;8.90;77.10;;;;;;4988365;28;20558;-83
2022/04/10 12:19:43;;;;;;;5.60;4.80;;;8.90;77.70;;;;;;4989984;28;20188;-83
2022/04/10 12:22:10;;;;;;;6.90;6.40;;;8.90;80.30;;;;;;4989333;28;20245;-83
2022/04/10 12:24:37;;;;;;;7.13;4.77;;;9.00;84.50;;;;;;4988372;28;20241;-83
2022/04/10 12:27:06;;;;;;;5.43;4.43;;;9.10;74.20;;;;;;4999683;28;20199;-83
2022/04/10 12:29:34;;;;;;;10.87;7.73;;;9.20;71.80;;;;;;5001076;28;20210;-81
2022/04/10 12:32:00;;;;;;;6.17;4.40;;;9.70;82.90;;;;;;5002988;28;20209;-81
2022/04/10 12:34:33;;;;;;;5.03;3.90;;;10.10;75.50;;;;;;4987212;28;20213;-82
2022/04/10 12:37:07;;;;;;;6.07;5.00;;;11.00;62.30;;;;;;4985721;28;20199;-83
2022/04/10 12:39:33;;;;;;;6.00;4.00;;;11.20;62.50;;;;;;4984832;28;20192;-85
2022/04/10 12:42:07;;;;;;;6.17;5.20;;;11.20;66.10;;;;;;4984867;28;20284;-83
2022/04/10 12:44:37;;;;;;;5.17;4.07;;;11.00;65.30;;;;;;4986572;28;20219;-82
2022/04/10 12:47:08;;;;;;;4.90;4.17;;;10.50;68.30;;;;;;4986243;28;20187;-82
2022/04/10 12:49:35;;;;;;;6.83;5.03;;;10.30;62.20;;;;;;4984276;28;20179;-83
2022/04/10 12:52:03;;;;;;;5.20;4.70;;;10.40;73.80;;;;;;4984544;28;20199;-82
2022/04/10 12:54:40;;;;;;;6.00;5.40;;;9.90;71.40;;;;;;4987039;28;20226;-82
2022/04/10 12:57:28;;;;;;;4.70;4.20;;;9.90;75.50;;;;;;4986651;28;20191;-82
2022/04/10 12:59:55;;;;;;;5.07;4.47;;;9.90;71.50;;;;;;4984401;28;20194;-82
2022/04/10 13:02:30;;;;;;;7.43;4.63;;;9.90;70.30;;;;;;4985647;28;20268;-82
2022/04/10 13:05:12;;;;;;;4.60;4.20;;;10.10;70.70;;;;;;4984158;28;20276;-83